Time;durP1;ratioP1;P1;durP2;ratioP2;P2;SDS_P1;SDS_P2;PMS_P1;PMS_P2;Temp;Humidity;BMP_temperature;BMP_pressure;BME280_temperature;BME280_humidity;BME280_pressure;Samples;Min_cycle;Max_cycle;Signal;HPM_P1;HPM_P2
2022/12/18 00:01:52;;;;;;;104.15;30.60;;;-12.40;99.90;;;;;;5006603;28;20030;-56
2022/12/18 00:04:22;;;;;;;110.43;30.75;;;-12.50;99.90;;;;;;5007577;28;20550;-57
2022/12/18 00:06:48;;;;;;;94.15;31.50;;;-12.60;99.90;;;;;;5008083;28;20041;-58
2022/12/18 00:09:14;;;;;;;99.30;29.83;;;-12.80;99.90;;;;;;5007381;28;20025;-56
2022/12/18 00:11:40;;;;;;;105.88;29.48;;;-12.90;99.90;;;;;;5007269;28;20040;-56
2022/12/18 00:14:05;;;;;;;92.68;27.25;;;-12.90;99.90;;;;;;5007374;28;20030;-58
2022/12/18 00:16:32;;;;;;;92.07;27.75;;;-13.00;99.90;;;;;;5007941;28;20080;-56
2022/12/18 00:18:59;;;;;;;106.22;29.50;;;-13.10;99.90;;;;;;5007457;28;20057;-56
2022/12/18 00:21:26;;;;;;;88.30;25.92;;;-13.10;99.90;;;;;;5005764;28;20022;-57
2022/12/18 00:23:52;;;;;;;84.28;25.85;;;-13.10;99.90;;;;;;5007831;28;20498;-56
2022/12/18 00:26:21;;;;;;;73.07;26.50;;;-13.10;99.90;;;;;;5010662;28;20026;-58
2022/12/18 00:28:48;;;;;;;62.00;24.15;;;-13.20;99.90;;;;;;5011578;28;20797;-57
2022/12/18 00:31:22;;;;;;;66.32;24.77;;;-13.20;99.90;;;;;;5011862;28;20045;-57
2022/12/18 00:33:48;;;;;;;67.68;23.10;;;-13.20;99.90;;;;;;5010964;28;20029;-57
2022/12/18 00:36:17;;;;;;;68.75;25.45;;;-13.20;99.90;;;;;;5011692;28;20125;-55
2022/12/18 00:38:43;;;;;;;60.83;23.33;;;-13.20;99.90;;;;;;5010945;28;20049;-56
2022/12/18 00:41:10;;;;;;;71.13;25.67;;;-13.20;99.90;;;;;;5010880;28;20041;-58
2022/12/18 00:43:37;;;;;;;74.30;25.88;;;-13.30;99.90;;;;;;5011252;28;20026;-56
2022/12/18 00:46:03;;;;;;;65.63;24.33;;;-13.40;99.90;;;;;;5010646;28;20032;-56
2022/12/18 00:48:29;;;;;;;63.83;25.25;;;-13.40;99.90;;;;;;5012223;28;20014;-58
2022/12/18 00:50:54;;;;;;;62.70;22.45;;;-13.40;99.90;;;;;;5011084;28;20053;-57
2022/12/18 00:53:20;;;;;;;72.40;24.08;;;-13.40;99.90;;;;;;4998929;28;20033;-57
2022/12/18 00:55:46;;;;;;;65.25;24.73;;;-13.40;99.90;;;;;;5010959;28;20454;-56
2022/12/18 00:58:14;;;;;;;70.93;25.52;;;-13.50;99.90;;;;;;5010484;28;20366;-55
2022/12/18 01:00:40;;;;;;;59.78;24.08;;;-13.50;99.90;;;;;;5010857;28;20040;-57
2022/12/18 01:03:05;;;;;;;68.55;23.08;;;-13.50;99.90;;;;;;4997243;28;20478;-57
2022/12/18 01:05:31;;;;;;;67.53;23.50;;;-13.50;99.90;;;;;;5011130;28;20060;-56
2022/12/18 01:07:58;;;;;;;66.22;24.25;;;-13.40;99.90;;;;;;5009984;28;20497;-56
2022/12/18 01:10:24;;;;;;;65.43;23.60;;;-13.30;99.90;;;;;;5010363;28;20113;-57
2022/12/18 01:12:50;;;;;;;67.13;24.05;;;-13.30;99.90;;;;;;5011306;28;20449;-57
2022/12/18 01:15:17;;;;;;;73.95;23.75;;;-13.20;99.90;;;;;;5010068;28;20121;-57
2022/12/18 01:17:43;;;;;;;65.93;24.88;;;-13.30;99.90;;;;;;5010283;28;20038;-55
2022/12/18 01:20:10;;;;;;;65.28;23.55;;;-13.20;99.90;;;;;;5010302;28;20121;-56
2022/12/18 01:22:36;;;;;;;55.13;23.58;;;-13.30;99.90;;;;;;5009927;28;20022;-58
2022/12/18 01:25:03;;;;;;;71.75;24.80;;;-13.30;99.90;;;;;;5010198;28;20068;-56
2022/12/18 01:27:29;;;;;;;71.00;23.52;;;-13.30;99.90;;;;;;5010800;28;20064;-57
2022/12/18 01:29:55;;;;;;;57.05;23.35;;;-13.30;99.90;;;;;;5009793;28;20061;-57
2022/12/18 01:32:21;;;;;;;73.38;22.88;;;-13.40;99.90;;;;;;5010436;28;20042;-56
2022/12/18 01:34:47;;;;;;;61.92;22.30;;;-13.40;99.90;;;;;;5007992;28;20037;-56
2022/12/18 01:37:13;;;;;;;61.50;25.33;;;-13.40;99.90;;;;;;5009554;28;20042;-57
2022/12/18 01:39:38;;;;;;;78.85;22.75;;;-13.50;99.90;;;;;;5010799;28;20026;-55
2022/12/18 01:42:11;;;;;;;60.97;23.48;;;-13.50;99.90;;;;;;5009779;28;20022;-57
2022/12/18 01:45:01;;;;;;;72.22;25.60;;;-13.50;99.90;;;;;;5009055;28;20125;-57
2022/12/18 01:47:38;;;;;;;92.47;29.70;;;-13.50;99.90;;;;;;5009271;28;20037;-56
2022/12/18 01:50:14;;;;;;;88.55;28.88;;;-13.50;99.90;;;;;;5009502;28;20030;-57
2022/12/18 01:52:44;;;;;;;80.53;28.65;;;-13.50;99.90;;;;;;5010858;28;20124;-56
2022/12/18 01:55:12;;;;;;;61.30;23.85;;;-13.40;99.90;;;;;;5008729;28;20037;-56
2022/12/18 01:57:38;;;;;;;64.75;22.95;;;-13.40;99.90;;;;;;5010446;28;20028;-56
2022/12/18 02:00:14;;;;;;;70.85;23.58;;;-13.50;99.90;;;;;;5008099;28;20084;-56
2022/12/18 02:02:41;;;;;;;64.30;23.10;;;-13.50;99.90;;;;;;5007238;28;20210;-57
2022/12/18 02:05:08;;;;;;;62.42;22.75;;;-13.60;99.90;;;;;;5010328;28;20026;-56
2022/12/18 02:08:05;;;;;;;56.17;22.50;;;-13.70;99.90;;;;;;5009141;28;20061;-56
2022/12/18 02:10:51;;;;;;;58.33;23.42;;;-13.80;99.90;;;;;;5001488;28;20030;-57
2022/12/18 02:13:40;;;;;;;74.35;24.00;;;-13.90;99.90;;;;;;5009444;28;20378;-57
2022/12/18 02:16:24;;;;;;;72.75;23.83;;;-13.80;99.90;;;;;;5009023;28;20510;-56
2022/12/18 02:18:56;;;;;;;55.42;21.50;;;-13.80;99.90;;;;;;5009999;28;20498;-56
2022/12/18 02:21:49;;;;;;;70.43;22.83;;;-13.70;99.90;;;;;;5008977;28;20524;-57
2022/12/18 02:24:30;;;;;;;64.82;24.73;;;-13.60;99.90;;;;;;5009256;28;20392;-57
2022/12/18 02:27:08;;;;;;;67.65;23.13;;;-13.50;99.90;;;;;;5007752;28;20022;-57
2022/12/18 02:29:42;;;;;;;95.68;29.80;;;-13.40;99.90;;;;;;5009152;28;20057;-55
2022/12/18 02:32:14;;;;;;;82.20;26.55;;;-13.20;99.90;;;;;;5008604;28;20049;-56
2022/12/18 02:34:41;;;;;;;85.13;26.15;;;-13.00;99.90;;;;;;5008241;28;20105;-57
2022/12/18 02:37:12;;;;;;;90.95;25.73;;;-12.80;99.90;;;;;;5009335;28;20084;-57
2022/12/18 02:39:41;;;;;;;101.10;29.98;;;-12.60;99.90;;;;;;5009040;28;20437;-57
2022/12/18 02:42:07;;;;;;;238.63;67.75;;;-12.50;99.90;;;;;;5012794;28;20026;-57
2022/12/18 02:44:35;;;;;;;157.40;53.47;;;-12.30;99.90;;;;;;5011717;28;20080;-57
2022/12/18 02:47:01;;;;;;;90.63;33.05;;;-12.20;99.90;;;;;;4993873;28;20402;-57
2022/12/18 02:49:57;;;;;;;90.13;28.05;;;-12.10;99.90;;;;;;5008826;28;20506;-56
2022/12/18 02:52:58;;;;;;;95.22;29.38;;;-12.00;99.90;;;;;;5007390;28;20037;-56
2022/12/18 02:55:33;;;;;;;75.50;26.60;;;-11.90;99.90;;;;;;5008271;28;20036;-56
2022/12/18 02:58:10;;;;;;;62.42;23.95;;;-11.80;99.90;;;;;;5007090;28;20033;-56
2022/12/18 03:00:58;;;;;;;54.30;21.30;;;-11.70;99.90;;;;;;5008756;28;20018;-58
2022/12/18 03:03:34;;;;;;;67.40;22.25;;;-11.90;99.90;;;;;;5008668;28;20212;-57
2022/12/18 03:06:20;;;;;;;62.15;21.90;;;-12.00;99.90;;;;;;5008767;28;20030;-57
2022/12/18 03:08:51;;;;;;;61.05;22.13;;;-12.10;99.90;;;;;;5006927;28;20030;-58
2022/12/18 03:12:22;;;;;;;57.15;21.73;;;-12.20;99.90;;;;;;5008180;28;20087;-57
2022/12/18 03:14:05;;;;;;;58.45;21.85;;;-12.40;99.90;;;;;;5008042;28;20022;-58
2022/12/18 03:16:33;;;;;;;52.95;19.98;;;-12.50;99.90;;;;;;5008352;28;20030;-58
2022/12/18 03:19:10;;;;;;;43.83;17.35;;;-12.50;99.90;;;;;;5007634;28;20048;-57
2022/12/18 03:22:04;;;;;;;40.67;19.17;;;-12.50;99.90;;;;;;5008981;28;20077;-56
2022/12/18 03:24:33;;;;;;;53.22;21.20;;;-12.60;99.90;;;;;;5006194;28;20117;-57
2022/12/18 03:27:02;;;;;;;58.38;22.42;;;-12.60;99.90;;;;;;5008514;28;20561;-57
2022/12/18 03:29:32;;;;;;;64.03;23.27;;;-12.60;99.90;;;;;;5008289;28;20030;-55
2022/12/18 03:32:05;;;;;;;76.15;28.27;;;-12.60;99.90;;;;;;5008871;28;20030;-57
2022/12/18 03:34:34;;;;;;;95.47;36.40;;;-12.50;99.90;;;;;;5007556;28;20538;-56
2022/12/18 03:37:04;;;;;;;111.68;44.33;;;-12.50;99.90;;;;;;5008669;28;20058;-57
2022/12/18 03:39:29;;;;;;;91.78;31.27;;;-12.40;99.90;;;;;;5009265;28;20434;-58
2022/12/18 03:42:20;;;;;;;70.28;25.45;;;-12.40;99.90;;;;;;5007710;28;20033;-57
2022/12/18 03:45:04;;;;;;;70.25;27.98;;;-12.20;99.90;;;;;;5008696;28;20422;-56
2022/12/18 03:48:00;;;;;;;72.18;24.52;;;-12.10;99.90;;;;;;5007101;28;20113;-57
2022/12/18 03:50:46;;;;;;;58.70;20.60;;;-12.00;99.90;;;;;;5008598;28;20417;-55
2022/12/18 03:53:20;;;;;;;69.65;24.10;;;-12.10;99.90;;;;;;5007927;28;21314;-56
2022/12/18 03:55:47;;;;;;;66.18;22.60;;;-12.10;99.90;;;;;;5007662;28;20088;-57
2022/12/18 03:58:18;;;;;;;48.97;22.30;;;-12.10;99.90;;;;;;5008285;28;20065;-57
2022/12/18 04:00:44;;;;;;;53.75;20.02;;;-12.10;99.90;;;;;;5006749;28;20055;-57
2022/12/18 04:03:10;;;;;;;55.65;21.48;;;-12.10;99.90;;;;;;5008387;28;20049;-57
2022/12/18 04:05:37;;;;;;;68.55;23.45;;;-12.10;99.90;;;;;;5008060;28;20053;-58
2022/12/18 04:08:03;;;;;;;61.55;21.05;;;-12.20;99.90;;;;;;5007901;28;20445;-57
2022/12/18 04:10:29;;;;;;;51.60;18.60;;;-12.30;99.90;;;;;;5008127;28;20030;-56
2022/12/18 04:12:58;;;;;;;55.17;20.52;;;-12.50;99.90;;;;;;5007905;28;20026;-58
2022/12/18 04:15:24;;;;;;;39.72;17.98;;;-12.70;99.90;;;;;;5008590;28;20025;-57
2022/12/18 04:17:50;;;;;;;49.65;17.85;;;-12.90;99.90;;;;;;5007861;28;20092;-56
2022/12/18 04:20:16;;;;;;;42.58;17.95;;;-13.00;99.90;;;;;;5007701;28;20026;-57
2022/12/18 04:22:42;;;;;;;45.53;18.13;;;-13.20;99.90;;;;;;5008279;28;20025;-56
2022/12/18 04:25:11;;;;;;;61.05;19.58;;;-13.30;99.90;;;;;;5007705;28;20038;-57
2022/12/18 04:27:37;;;;;;;51.03;19.77;;;-13.40;99.90;;;;;;5009455;28;20064;-58
2022/12/18 04:30:03;;;;;;;44.33;18.27;;;-13.60;99.90;;;;;;5007167;28;20441;-57
2022/12/18 04:32:28;;;;;;;42.47;16.83;;;-13.60;99.90;;;;;;5007980;28;20081;-57
2022/12/18 04:34:54;;;;;;;53.25;20.38;;;-13.70;99.90;;;;;;5008150;28;20030;-56
2022/12/18 04:37:20;;;;;;;51.28;20.88;;;-13.70;99.90;;;;;;5007592;28;20123;-58
2022/12/18 04:39:46;;;;;;;53.92;21.88;;;-13.80;99.90;;;;;;5008586;28;20030;-56
2022/12/18 04:42:12;;;;;;;56.53;20.40;;;-13.80;99.90;;;;;;5006587;28;20026;-59
2022/12/18 04:44:38;;;;;;;53.88;20.00;;;-13.80;99.90;;;;;;5007606;28;20046;-57
2022/12/18 04:47:04;;;;;;;57.47;20.15;;;-13.80;99.90;;;;;;5008249;28;20077;-55
2022/12/18 04:49:29;;;;;;;56.33;19.52;;;-13.80;99.90;;;;;;5007478;28;20036;-56
2022/12/18 04:51:56;;;;;;;43.75;19.15;;;-13.80;99.90;;;;;;5007926;28;20025;-56
2022/12/18 04:54:22;;;;;;;52.60;19.83;;;-13.70;99.90;;;;;;5008363;28;20076;-57
2022/12/18 04:56:48;;;;;;;46.38;19.42;;;-13.70;99.90;;;;;;5007672;28;20033;-57
2022/12/18 04:59:13;;;;;;;43.67;19.77;;;-13.80;99.90;;;;;;5007970;28;20038;-56
2022/12/18 05:01:39;;;;;;;55.50;20.13;;;-13.80;99.90;;;;;;5007489;28;20034;-56
2022/12/18 05:04:05;;;;;;;49.72;20.05;;;-13.80;99.90;;;;;;5007859;28;20026;-56
2022/12/18 05:06:30;;;;;;;53.25;20.58;;;-13.70;99.90;;;;;;5008351;28;20552;-57
2022/12/18 05:08:56;;;;;;;47.70;19.35;;;-13.70;99.90;;;;;;5007437;28;20042;-57
2022/12/18 05:11:22;;;;;;;51.38;20.20;;;-13.80;99.90;;;;;;5009158;28;20026;-58
2022/12/18 05:13:49;;;;;;;54.28;23.65;;;-13.80;99.90;;;;;;5010779;28;20088;-56
2022/12/18 05:16:15;;;;;;;56.28;22.38;;;-13.80;99.90;;;;;;4995618;28;20037;-56
2022/12/18 05:18:41;;;;;;;55.33;21.73;;;-13.70;99.90;;;;;;5011504;28;20030;-58
2022/12/18 05:21:06;;;;;;;60.42;20.77;;;-13.70;99.90;;;;;;5010552;28;20030;-58
2022/12/18 05:23:35;;;;;;;65.18;23.27;;;-13.70;99.90;;;;;;5011105;28;20506;-58
2022/12/18 05:26:04;;;;;;;57.50;21.25;;;-13.70;99.90;;;;;;5009876;28;20087;-57
2022/12/18 05:28:31;;;;;;;51.95;19.83;;;-13.70;99.90;;;;;;5009229;28;20109;-57
2022/12/18 05:30:59;;;;;;;52.20;21.98;;;-13.60;99.90;;;;;;5010717;28;20440;-56
2022/12/18 05:33:26;;;;;;;59.83;23.42;;;-13.60;99.90;;;;;;5011184;28;20087;-56
2022/12/18 05:35:54;;;;;;;48.55;19.48;;;-13.60;99.90;;;;;;5010890;28;20470;-58
2022/12/18 05:38:21;;;;;;;51.10;18.70;;;-13.60;99.90;;;;;;4994929;28;20042;-58
2022/12/18 05:40:48;;;;;;;50.65;19.75;;;-13.60;99.90;;;;;;5010619;28;20033;-57
2022/12/18 05:43:14;;;;;;;44.05;18.33;;;-13.60;99.90;;;;;;4977984;28;20739;-56
2022/12/18 05:45:41;;;;;;;53.03;18.52;;;-13.70;99.90;;;;;;5010403;28;20135;-56
2022/12/18 05:48:07;;;;;;;49.20;19.33;;;-13.60;99.90;;;;;;5010858;28;20038;-57
2022/12/18 05:50:37;;;;;;;57.78;18.85;;;-13.60;99.90;;;;;;5008109;28;20520;-55
2022/12/18 05:53:04;;;;;;;41.83;17.65;;;-13.60;99.90;;;;;;5010871;28;20721;-56
2022/12/18 05:55:36;;;;;;;50.47;18.70;;;-13.60;99.90;;;;;;5010423;28;20032;-56
2022/12/18 05:58:03;;;;;;;35.28;16.50;;;-13.70;99.90;;;;;;5009876;28;20105;-55
2022/12/18 06:00:28;;;;;;;36.58;17.13;;;-13.80;99.90;;;;;;5009703;28;20611;-57
2022/12/18 06:02:54;;;;;;;42.50;16.92;;;-13.80;99.90;;;;;;5009940;28;20065;-57
2022/12/18 06:05:20;;;;;;;43.00;17.50;;;-13.80;99.90;;;;;;5009972;28;20030;-55
2022/12/18 06:07:45;;;;;;;49.88;18.45;;;-13.80;99.90;;;;;;5010491;28;20037;-55
2022/12/18 06:10:11;;;;;;;42.78;16.33;;;-13.90;99.90;;;;;;5009517;28;20053;-57
2022/12/18 06:12:37;;;;;;;44.90;16.48;;;-14.00;99.90;;;;;;5011157;28;20022;-57
2022/12/18 06:15:03;;;;;;;46.38;16.33;;;-14.10;99.90;;;;;;5009610;28;20065;-57
2022/12/18 06:17:30;;;;;;;41.88;16.80;;;-14.20;99.90;;;;;;5010181;28;20042;-57
2022/12/18 06:19:55;;;;;;;40.97;16.98;;;-14.30;99.90;;;;;;5009919;28;20437;-57
2022/12/18 06:22:21;;;;;;;43.85;16.95;;;-14.30;99.90;;;;;;5008789;28;20113;-57
2022/12/18 06:24:47;;;;;;;50.55;18.55;;;-14.30;99.90;;;;;;5010104;28;20022;-56
2022/12/18 06:27:13;;;;;;;42.65;17.35;;;-14.20;99.90;;;;;;5009398;28;20076;-55
2022/12/18 06:29:38;;;;;;;47.75;17.77;;;-14.10;99.90;;;;;;5011202;28;20103;-57
2022/12/18 06:32:04;;;;;;;50.35;18.17;;;-13.90;99.90;;;;;;5009360;28;20444;-56
2022/12/18 06:34:33;;;;;;;49.95;20.02;;;-13.70;99.90;;;;;;5009445;28;20026;-56
2022/12/18 06:36:59;;;;;;;49.63;18.52;;;-13.70;99.90;;;;;;5009595;28;20030;-56
2022/12/18 06:39:27;;;;;;;45.30;17.92;;;-13.70;99.90;;;;;;5009503;28;20083;-58
2022/12/18 06:41:52;;;;;;;41.60;16.58;;;-13.70;99.90;;;;;;5009563;28;20040;-56
2022/12/18 06:44:18;;;;;;;44.10;17.98;;;-13.70;99.90;;;;;;5009622;28;20038;-57
2022/12/18 06:46:44;;;;;;;45.58;15.93;;;-13.80;99.90;;;;;;5008923;28;20140;-56
2022/12/18 06:49:09;;;;;;;42.35;17.27;;;-13.90;99.90;;;;;;5009406;28;20398;-55
2022/12/18 06:51:35;;;;;;;46.33;17.45;;;-14.10;99.90;;;;;;5009651;28;20041;-56
2022/12/18 06:54:01;;;;;;;50.85;19.48;;;-14.20;99.90;;;;;;5009070;28;20041;-56
2022/12/18 06:56:27;;;;;;;49.03;19.25;;;-14.30;99.90;;;;;;5009074;28;20034;-56
2022/12/18 06:58:53;;;;;;;45.22;18.52;;;-14.30;99.90;;;;;;5008729;28;20054;-56
2022/12/18 07:01:19;;;;;;;60.65;19.90;;;-14.20;99.90;;;;;;5008860;28;20111;-58
2022/12/18 07:03:45;;;;;;;53.30;18.30;;;-14.20;99.90;;;;;;5009364;28;20022;-57
2022/12/18 07:06:19;;;;;;;85.75;24.15;;;-14.20;99.90;;;;;;5008476;28;20413;-57
2022/12/18 07:08:45;;;;;;;60.47;22.20;;;-14.20;99.90;;;;;;5009021;28;20220;-57
2022/12/18 07:11:11;;;;;;;79.05;25.20;;;-14.10;99.90;;;;;;5008418;28;20112;-57
2022/12/18 07:13:37;;;;;;;62.30;21.92;;;-14.10;99.90;;;;;;5008972;28;20025;-57
2022/12/18 07:16:11;;;;;;;74.10;23.90;;;-14.00;99.90;;;;;;5008751;28;20041;-55
2022/12/18 07:18:37;;;;;;;42.65;16.08;;;-13.90;99.90;;;;;;5009305;28;20041;-56
2022/12/18 07:21:09;;;;;;;37.90;17.33;;;-13.90;99.90;;;;;;5009173;28;20030;-57
2022/12/18 07:23:35;;;;;;;43.50;16.35;;;-14.00;99.90;;;;;;5008429;28;20100;-57
2022/12/18 07:26:06;;;;;;;39.40;14.82;;;-14.10;99.90;;;;;;5008640;28;20044;-57
2022/12/18 07:28:33;;;;;;;40.20;17.00;;;-14.20;99.90;;;;;;5007899;28;20120;-56
2022/12/18 07:31:03;;;;;;;48.17;16.65;;;-14.30;99.90;;;;;;5005115;28;20398;-57
2022/12/18 07:33:28;;;;;;;33.63;14.88;;;-14.40;99.90;;;;;;5008841;28;20018;-58
2022/12/18 07:35:54;;;;;;;53.42;16.83;;;-14.50;99.90;;;;;;5007484;28;20060;-57
2022/12/18 07:38:20;;;;;;;44.45;19.33;;;-14.50;99.90;;;;;;5008063;28;20034;-57
2022/12/18 07:40:45;;;;;;;44.78;15.93;;;-14.50;99.90;;;;;;5005983;28;20082;-58
2022/12/18 07:43:11;;;;;;;47.08;19.30;;;-14.50;99.90;;;;;;5007843;28;20030;-56
2022/12/18 07:45:36;;;;;;;43.05;17.35;;;-14.40;99.90;;;;;;5008021;28;20037;-57
2022/12/18 07:48:02;;;;;;;46.13;16.65;;;-14.40;99.90;;;;;;5008543;28;20053;-56
2022/12/18 07:50:27;;;;;;;37.78;16.05;;;-14.30;99.90;;;;;;5007861;28;20022;-56
2022/12/18 07:52:53;;;;;;;40.72;15.10;;;-14.30;99.90;;;;;;4994302;28;20022;-56
2022/12/18 07:55:19;;;;;;;36.28;15.32;;;-14.20;99.90;;;;;;5007833;28;20521;-58
2022/12/18 07:57:45;;;;;;;39.35;16.42;;;-14.10;99.90;;;;;;5012255;28;20497;-58
2022/12/18 08:00:12;;;;;;;39.25;17.67;;;-14.00;99.90;;;;;;5007111;28;20034;-58
2022/12/18 08:02:37;;;;;;;42.72;16.45;;;-13.90;99.90;;;;;;5008333;28;20498;-56
2022/12/18 08:05:03;;;;;;;42.15;16.02;;;-13.70;99.90;;;;;;5008221;28;20053;-56
2022/12/18 08:07:29;;;;;;;40.15;17.50;;;-13.60;99.90;;;;;;5007911;28;20030;-55
2022/12/18 08:09:54;;;;;;;50.95;19.75;;;-13.40;99.90;;;;;;5008401;28;20022;-58
2022/12/18 08:12:20;;;;;;;42.05;17.95;;;-13.30;99.90;;;;;;5008591;28;20023;-57
2022/12/18 08:14:46;;;;;;;46.47;19.10;;;-13.20;99.90;;;;;;5008152;28;20033;-57
2022/12/18 08:17:11;;;;;;;45.88;17.02;;;-13.00;99.90;;;;;;5008190;28;20033;-58
2022/12/18 08:19:37;;;;;;;45.88;19.88;;;-12.90;99.90;;;;;;5007408;28;20049;-58
2022/12/18 08:22:02;;;;;;;51.67;20.02;;;-12.70;99.90;;;;;;5008192;28;20018;-56
2022/12/18 08:24:28;;;;;;;46.25;20.25;;;-12.60;99.90;;;;;;5000624;28;20068;-56
2022/12/18 08:26:54;;;;;;;41.83;18.30;;;-12.40;99.90;;;;;;5007472;28;20030;-57
2022/12/18 08:29:19;;;;;;;38.40;16.05;;;-12.30;99.90;;;;;;5008079;28;20022;-58
2022/12/18 08:31:45;;;;;;;41.00;15.63;;;-12.20;99.90;;;;;;5007544;28;20679;-58
2022/12/18 08:34:10;;;;;;;36.45;15.73;;;-12.20;99.90;;;;;;5008079;28;20032;-58
2022/12/18 08:36:36;;;;;;;38.75;14.13;;;-12.20;99.90;;;;;;5010524;28;20021;-56
2022/12/18 08:39:02;;;;;;;46.50;15.68;;;-12.20;99.90;;;;;;5007425;28;20410;-56
2022/12/18 08:41:28;;;;;;;30.85;13.85;;;-12.20;99.90;;;;;;5008123;28;20052;-57
2022/12/18 08:46:39;;;;;;;51.97;16.75;;;-12.10;99.90;;;;;;5009321;28;20110;-57
2022/12/18 08:49:06;;;;;;;41.00;14.77;;;-12.00;99.90;;;;;;5011212;28;20486;-57
2022/12/18 08:51:33;;;;;;;42.50;17.20;;;-12.00;99.90;;;;;;5012337;28;20117;-58
2022/12/18 08:53:58;;;;;;;46.22;15.65;;;-11.90;99.90;;;;;;5012069;28;20034;-56
2022/12/18 08:56:24;;;;;;;36.90;16.83;;;-11.80;99.90;;;;;;5011175;28;20081;-58
2022/12/18 08:58:54;;;;;;;39.53;16.27;;;-11.70;99.90;;;;;;5009778;28;20045;-58
2022/12/18 09:01:20;;;;;;;46.72;16.92;;;-11.70;99.90;;;;;;5010712;28;20034;-56
2022/12/18 09:03:46;;;;;;;38.42;15.43;;;-11.70;99.90;;;;;;5011270;28;20033;-58
2022/12/18 09:06:15;;;;;;;38.35;15.95;;;-11.60;99.90;;;;;;5011101;28;20030;-58
2022/12/18 09:08:41;;;;;;;44.25;17.05;;;-11.60;99.90;;;;;;5009851;28;20041;-57
2022/12/18 09:11:28;;;;;;;43.67;15.95;;;-11.50;99.90;;;;;;5011281;28;20113;-57
2022/12/18 09:13:54;;;;;;;36.80;14.30;;;-11.10;99.90;;;;;;5011165;28;20034;-57
2022/12/18 09:16:21;;;;;;;46.55;17.27;;;-10.80;99.90;;;;;;5010404;28;20026;-58
2022/12/18 09:18:47;;;;;;;31.98;15.52;;;-10.00;99.90;;;;;;5011568;28;20058;-57
2022/12/18 09:21:18;;;;;;;39.40;15.48;;;-9.50;99.90;;;;;;5010599;28;20069;-58
2022/12/18 09:23:43;;;;;;;;;;;-8.80;99.90;;;;;;5009937;28;20526;-58
2022/12/18 09:26:09;;;;;;;36.75;15.32;;;-7.90;99.90;;;;;;5009966;28;19933;-56
2022/12/18 09:28:35;;;;;;;44.45;18.63;;;-7.20;97.80;;;;;;5010731;28;20450;-58
2022/12/18 09:31:07;;;;;;;31.92;16.95;;;-6.00;96.80;;;;;;5010965;28;20053;-59
2022/12/18 09:33:33;;;;;;;31.60;17.17;;;-4.90;94.70;;;;;;5011084;28;20014;-59
2022/12/18 09:36:02;;;;;;;32.40;19.33;;;-4.10;91.40;;;;;;5010932;28;20556;-58
2022/12/18 09:38:28;;;;;;;34.22;19.77;;;-3.00;90.40;;;;;;5009901;28;20041;-57
2022/12/18 09:41:00;;;;;;;44.28;22.05;;;-2.20;84.00;;;;;;5010708;28;20030;-57
2022/12/18 09:43:45;;;;;;;40.00;23.52;;;-1.40;79.20;;;;;;5010924;28;20130;-59
2022/12/18 09:46:18;;;;;;;36.33;18.92;;;-1.30;78.00;;;;;;5010134;28;20506;-58
2022/12/18 09:48:48;;;;;;;48.03;23.50;;;-0.70;78.30;;;;;;5010520;28;20034;-59
2022/12/18 09:51:18;;;;;;;36.83;20.55;;;-0.30;75.30;;;;;;5009612;28;20193;-58
2022/12/18 09:53:53;;;;;;;37.47;19.60;;;-0.50;75.90;;;;;;5010037;28;20061;-57
2022/12/18 09:56:22;;;;;;;35.97;21.45;;;-0.70;76.30;;;;;;5009884;28;20057;-57
2022/12/18 09:58:59;;;;;;;41.85;20.55;;;-0.70;75.40;;;;;;5010041;28;20046;-58
2022/12/18 10:01:27;;;;;;;37.65;20.90;;;-0.50;78.10;;;;;;5007572;28;20022;-59
2022/12/18 10:03:53;;;;;;;41.70;20.90;;;-0.40;76.50;;;;;;5010170;28;20026;-60
2022/12/18 10:06:28;;;;;;;40.58;21.83;;;-0.40;74.50;;;;;;5009639;28;20054;-57
2022/12/18 10:08:54;;;;;;;42.35;21.20;;;-0.80;74.40;;;;;;5008853;28;20026;-58
2022/12/18 10:11:40;;;;;;;46.60;20.50;;;-1.00;76.90;;;;;;5010335;28;20454;-59
2022/12/18 10:14:19;;;;;;;41.13;20.52;;;-0.80;76.30;;;;;;5007382;28;20111;-57
2022/12/18 10:17:02;;;;;;;35.60;20.73;;;-0.90;77.20;;;;;;5009576;28;20014;-59
2022/12/18 10:19:33;;;;;;;27.67;17.42;;;-0.80;79.80;;;;;;5009136;28;20041;-60
2022/12/18 10:22:11;;;;;;;24.95;16.65;;;-0.30;81.70;;;;;;5009704;28;20339;-60
2022/12/18 10:24:45;;;;;;;33.40;17.42;;;0.20;81.50;;;;;;5009789;28;20026;-59
2022/12/18 10:27:25;;;;;;;26.13;15.77;;;0.80;79.90;;;;;;5008016;28;20077;-59
2022/12/18 10:29:51;;;;;;;24.02;16.65;;;1.10;77.90;;;;;;5009914;28;20038;-59
2022/12/18 10:32:26;;;;;;;24.73;16.85;;;1.50;77.60;;;;;;5010079;28;20026;-59
2022/12/18 10:34:55;;;;;;;24.08;14.85;;;1.60;76.90;;;;;;5009936;28;20058;-57
2022/12/18 10:37:26;;;;;;;17.27;13.07;;;1.90;77.00;;;;;;5009412;28;20092;-58
2022/12/18 10:40:25;;;;;;;14.77;13.13;;;2.10;76.50;;;;;;5009851;28;20033;-59
2022/12/18 10:43:05;;;;;;;20.60;13.00;;;2.20;75.30;;;;;;4921484;28;20034;-58
2022/12/18 10:45:30;;;;;;;17.63;12.25;;;2.20;75.90;;;;;;5008601;28;20022;-58
2022/12/18 10:47:56;;;;;;;16.98;11.95;;;2.10;76.70;;;;;;5009817;28;20529;-59
2022/12/18 10:50:37;;;;;;;20.27;13.52;;;1.70;75.30;;;;;;5009383;28;20038;-58
2022/12/18 10:53:04;;;;;;;21.15;13.75;;;1.20;77.70;;;;;;5008987;28;20034;-58
2022/12/18 10:55:35;;;;;;;15.35;11.60;;;0.90;79.00;;;;;;5009202;28;20029;-58
2022/12/18 10:58:13;;;;;;;;;;;0.50;80.40;;;;;;5009053;28;20068;-57
2022/12/18 11:00:38;;;;;;;16.98;10.85;;;0.20;81.40;;;;;;5008995;28;19908;-60
2022/12/18 11:03:32;;;;;;;19.83;12.20;;;-0.20;82.90;;;;;;5008200;28;20109;-60
2022/12/18 11:06:13;;;;;;;23.15;12.25;;;-0.30;84.10;;;;;;5005543;28;20026;-59
2022/12/18 11:08:40;;;;;;;;;;;-0.40;84.80;;;;;;5007709;28;20034;-59
2022/12/18 11:11:22;;;;;;;16.52;11.27;;;-0.50;84.50;;;;;;5006662;28;19979;-59
2022/12/18 11:14:12;;;;;;;19.63;11.93;;;-0.50;86.20;;;;;;5008314;28;20074;-58
2022/12/18 11:16:44;;;;;;;19.17;13.27;;;-0.70;87.30;;;;;;5007883;28;20041;-58
2022/12/18 11:19:30;;;;;;;17.02;11.40;;;-0.90;86.90;;;;;;5008222;28;20719;-59
2022/12/18 11:21:57;;;;;;;22.52;11.82;;;-0.90;87.80;;;;;;5008062;28;20026;-58
2022/12/18 11:24:28;;;;;;;20.75;12.70;;;-0.90;88.50;;;;;;5007081;28;20137;-57
2022/12/18 11:26:55;;;;;;;20.60;12.55;;;-1.00;88.30;;;;;;5006867;28;20513;-59
2022/12/18 11:29:34;;;;;;;17.30;12.77;;;-1.00;88.80;;;;;;5008168;28;20030;-57
2022/12/18 11:32:15;;;;;;;16.20;11.85;;;-1.20;89.60;;;;;;5007708;28;20049;-59
2022/12/18 11:34:48;;;;;;;16.85;10.80;;;-1.40;90.20;;;;;;5008290;28;20018;-58
2022/12/18 11:37:19;;;;;;;19.50;11.35;;;-1.50;90.40;;;;;;5009382;28;20154;-58
2022/12/18 11:40:01;;;;;;;21.42;11.35;;;-1.50;90.60;;;;;;5008683;28;20386;-58
2022/12/18 11:42:44;;;;;;;24.58;11.40;;;-1.50;90.80;;;;;;4982911;28;20121;-58
2022/12/18 11:45:13;;;;;;;20.55;11.32;;;-1.40;90.90;;;;;;5006570;28;20033;-59
2022/12/18 11:47:56;;;;;;;19.85;11.88;;;-1.40;91.30;;;;;;5006226;28;20030;-58
2022/12/18 11:50:29;;;;;;;18.75;11.57;;;-1.30;90.80;;;;;;5006184;28;20026;-59
2022/12/18 11:52:54;;;;;;;21.40;10.50;;;-1.20;91.10;;;;;;5008267;28;20041;-60
2022/12/18 11:55:43;;;;;;;16.20;11.40;;;-1.10;91.30;;;;;;5007788;28;20026;-57
2022/12/18 11:58:50;;;;;;;18.30;9.98;;;-1.00;91.20;;;;;;5008211;28;20034;-58
2022/12/18 12:01:34;;;;;;;22.98;10.43;;;-0.70;91.40;;;;;;4936233;29;20102;-58
2022/12/18 12:04:20;;;;;;;15.07;10.23;;;-0.50;90.70;;;;;;5002567;28;20037;-61
2022/12/18 12:06:58;;;;;;;17.60;10.95;;;-0.50;90.50;;;;;;5008722;28;20092;-59
2022/12/18 12:09:41;;;;;;;19.05;10.00;;;-0.50;90.70;;;;;;5007222;28;20046;-57
2022/12/18 12:12:16;;;;;;;17.05;10.88;;;-0.50;90.30;;;;;;4997579;28;20030;-59
2022/12/18 12:15:10;;;;;;;16.65;10.15;;;-0.70;90.40;;;;;;5007456;28;20041;-60
2022/12/18 12:17:51;;;;;;;16.20;10.23;;;-0.80;90.60;;;;;;5007975;28;20518;-59
2022/12/18 12:20:32;;;;;;;19.48;10.40;;;-0.80;90.90;;;;;;5007282;28;20533;-57
2022/12/18 12:23:05;;;;;;;16.45;10.02;;;-0.70;90.80;;;;;;5011216;28;20394;-59
2022/12/18 12:26:18;;;;;;;16.02;9.73;;;-0.70;90.90;;;;;;5011722;28;20022;-59
2022/12/18 12:29:03;;;;;;;16.83;10.55;;;-0.70;90.90;;;;;;4935639;28;20037;-59
2022/12/18 12:31:31;;;;;;;14.45;9.60;;;-0.80;90.90;;;;;;4933662;29;20023;-59
2022/12/18 12:34:06;;;;;;;15.43;10.02;;;-1.00;91.20;;;;;;4985980;28;20112;-59
2022/12/18 12:37:01;;;;;;;16.23;9.70;;;-1.30;91.60;;;;;;5001715;28;20556;-59
2022/12/18 12:39:40;;;;;;;18.48;9.73;;;-1.50;91.90;;;;;;5010931;28;20034;-60
2022/12/18 12:45:04;;;;;;;20.40;10.95;;;-1.80;93.00;;;;;;5011581;28;20049;-58